Time;durP1;ratioP1;P1;durP2;ratioP2;P2;SDS_P1;SDS_P2;PMS_P1;PMS_P2;Temp;Humidity;BMP_temperature;BMP_pressure;BME280_temperature;BME280_humidity;BME280_pressure;Samples;Min_cycle;Max_cycle;Signal;HPM_P1;HPM_P2
2022/03/29 00:01:58;;;;;;;19.10;11.37;;;6.80;76.70;;;;;;5067424;28;20248;-82
2022/03/29 00:04:25;;;;;;;18.10;10.80;;;6.80;76.80;;;;;;5071857;28;20195;-82
2022/03/29 00:06:51;;;;;;;20.40;12.13;;;6.80;76.50;;;;;;5068833;28;20194;-82
2022/03/29 00:09:17;;;;;;;17.13;10.77;;;6.80;77.30;;;;;;5067709;28;20216;-82
2022/03/29 00:11:43;;;;;;;18.17;10.03;;;6.80;76.60;;;;;;5063625;28;20178;-82
2022/03/29 00:14:09;;;;;;;19.30;12.43;;;6.80;77.40;;;;;;5060953;28;20182;-82
2022/03/29 00:16:35;;;;;;;17.57;9.70;;;;;;;;;;5061178;28;20207;-82
2022/03/29 00:19:01;;;;;;;18.20;10.93;;;6.80;87.10;;;;;;5059763;28;20186;-82
2022/03/29 00:21:27;;;;;;;18.87;11.33;;;6.80;77.60;;;;;;5061069;28;20241;-82
2022/03/29 00:23:54;;;;;;;17.27;9.67;;;;;;;;;;5060368;28;20670;-82
2022/03/29 00:26:20;;;;;;;14.67;9.53;;;7.00;90.00;;;;;;5059626;28;20436;-82
2022/03/29 00:28:47;;;;;;;20.67;11.97;;;;;;;;;;5061462;28;20624;-82
2022/03/29 00:31:16;;;;;;;18.57;10.80;;;6.70;77.90;;;;;;5060199;28;20231;-82
2022/03/29 00:33:42;;;;;;;20.67;11.77;;;6.70;79.10;;;;;;5061520;28;20186;-82
2022/03/29 00:36:08;;;;;;;24.00;10.87;;;6.70;79.40;;;;;;5059912;28;20185;-82
2022/03/29 00:38:33;;;;;;;15.70;10.50;;;;;;;;;;5059982;28;20201;-82
2022/03/29 00:40:59;;;;;;;20.20;10.93;;;6.60;78.70;;;;;;5061880;28;20180;-82
2022/03/29 00:43:25;;;;;;;16.60;11.00;;;6.60;79.60;;;;;;5060566;28;20207;-82
2022/03/29 00:45:51;;;;;;;20.20;11.30;;;6.60;78.90;;;;;;5061146;28;20174;-82
2022/03/29 00:48:17;;;;;;;16.57;10.10;;;;;;;;;;5061454;28;20199;-82
2022/03/29 00:50:44;;;;;;;15.37;9.97;;;6.60;79.10;;;;;;5062971;28;20182;-82
2022/03/29 00:53:10;;;;;;;15.90;10.07;;;6.60;79.10;;;;;;5060915;28;20181;-81
2022/03/29 00:55:37;;;;;;;17.50;9.63;;;6.60;78.80;;;;;;5063524;28;20184;-80
2022/03/29 00:58:06;;;;;;;18.13;9.70;;;6.60;78.60;;;;;;5075586;28;20206;-80
2022/03/29 01:00:32;;;;;;;14.80;9.27;;;;;;;;;;5063931;28;20179;-82
2022/03/29 01:03:01;;;;;;;15.00;9.33;;;6.70;78.60;;;;;;5059971;28;20187;-81
2022/03/29 01:05:27;;;;;;;16.17;10.13;;;6.60;78.50;;;;;;5059852;28;20183;-82
2022/03/29 01:07:56;;;;;;;15.53;10.37;;;6.60;78.50;;;;;;5061930;28;20247;-82
2022/03/29 01:10:23;;;;;;;16.23;9.77;;;6.60;78.70;;;;;;5061676;28;20188;-82
2022/03/29 01:12:50;;;;;;;14.83;9.27;;;6.60;79.10;;;;;;5059962;28;20183;-82
2022/03/29 01:15:16;;;;;;;15.60;9.63;;;6.60;79.20;;;;;;5061532;28;20173;-82
2022/03/29 01:17:43;;;;;;;15.70;9.07;;;6.60;79.30;;;;;;5060613;28;20614;-82
2022/03/29 01:20:22;;;;;;;15.53;10.00;;;6.40;92.90;;;;;;5061778;28;20173;-82
2022/03/29 01:22:50;;;;;;;20.77;9.97;;;6.50;81.30;;;;;;5062179;28;20258;-82
2022/03/29 01:25:23;;;;;;;14.37;9.67;;;6.40;80.10;;;;;;5060284;28;20734;-80
2022/03/29 01:27:51;;;;;;;18.37;10.13;;;6.30;80.80;;;;;;5059716;28;20192;-80
2022/03/29 01:30:18;;;;;;;12.93;8.27;;;6.20;80.90;;;;;;5062023;28;20695;-81
2022/03/29 01:32:46;;;;;;;14.53;9.60;;;6.10;92.00;;;;;;5060568;28;20261;-81
2022/03/29 01:35:15;;;;;;;11.93;8.27;;;6.20;81.40;;;;;;5062298;28;20174;-82
2022/03/29 01:37:40;;;;;;;14.00;9.33;;;6.20;81.40;;;;;;5060751;28;20205;-80
2022/03/29 01:40:08;;;;;;;13.47;8.60;;;6.20;81.60;;;;;;5063110;28;20166;-81
2022/03/29 01:42:34;;;;;;;15.37;9.07;;;6.30;94.00;;;;;;5060384;28;20242;-80
2022/03/29 01:45:00;;;;;;;14.63;9.27;;;6.20;81.50;;;;;;5061454;28;20234;-81
2022/03/29 01:47:26;;;;;;;17.90;8.73;;;6.20;81.20;;;;;;5061413;28;20224;-81
2022/03/29 01:49:52;;;;;;;14.63;8.77;;;;;;;;;;5061603;28;20627;-81
2022/03/29 01:52:19;;;;;;;15.43;9.30;;;6.40;92.40;;;;;;5060734;28;20185;-81
2022/03/29 01:54:45;;;;;;;15.97;9.10;;;6.30;81.10;;;;;;5067390;28;20187;-81
2022/03/29 01:57:11;;;;;;;17.20;8.50;;;;;;;;;;5062072;28;20255;-83
2022/03/29 02:02:23;;;;;;;13.87;9.23;;;6.50;91.60;;;;;;5061982;28;20196;-79
2022/03/29 02:04:48;;;;;;;15.57;9.90;;;6.40;81.40;;;;;;5061794;28;20198;-82
2022/03/29 02:07:16;;;;;;;16.40;9.37;;;;;;;;;;5061631;28;20187;-80
2022/03/29 02:09:42;;;;;;;20.27;10.97;;;6.40;90.30;;;;;;5059974;28;20187;-81
2022/03/29 02:12:12;;;;;;;20.20;10.00;;;;;;;;;;5059530;28;20179;-81
2022/03/29 02:14:38;;;;;;;17.93;10.87;;;;;;;;;;5062523;28;20178;-80
2022/03/29 02:17:05;;;;;;;20.00;12.37;;;6.20;82.20;;;;;;5060778;28;20216;-81
2022/03/29 02:19:31;;;;;;;17.23;10.23;;;;;;;;;;5060629;28;20182;-81
2022/03/29 02:21:57;;;;;;;21.83;10.93;;;6.10;95.70;;;;;;5061074;28;20179;-81
2022/03/29 02:24:23;;;;;;;21.80;12.13;;;6.10;82.70;;;;;;5061032;28;20297;-80
2022/03/29 02:26:49;;;;;;;21.00;10.83;;;;;;;;;;5064648;28;20221;-82
2022/03/29 02:29:15;;;;;;;17.77;10.77;;;6.10;82.90;;;;;;5063087;28;20637;-81
2022/03/29 02:31:41;;;;;;;12.97;8.70;;;;;;;;;;5063279;28;20189;-81
2022/03/29 02:34:06;;;;;;;15.43;9.07;;;6.10;82.90;;;;;;5063408;28;20183;-81
2022/03/29 02:36:32;;;;;;;22.77;10.73;;;6.10;97.40;;;;;;5063008;28;20191;-80
2022/03/29 02:38:59;;;;;;;18.73;11.40;;;;;;;;;;5065383;28;20174;-80
2022/03/29 02:41:24;;;;;;;22.03;10.20;;;6.20;96.70;;;;;;5063725;28;20228;-81
2022/03/29 02:43:50;;;;;;;19.43;11.23;;;;;;;;;;5062806;28;20226;-81
2022/03/29 02:46:16;;;;;;;18.43;9.87;;;6.30;93.90;;;;;;5064737;28;20170;-81
2022/03/29 02:48:42;;;;;;;18.23;9.67;;;;;;;;;;5062916;28;20273;-80
2022/03/29 02:51:08;;;;;;;17.47;10.10;;;;;;;;;;5064938;28;20181;-81
2022/03/29 02:53:34;;;;;;;18.37;10.50;;;6.30;81.80;;;;;;5063993;28;20265;-81
2022/03/29 02:55:59;;;;;;;17.63;10.13;;;;;;;;;;5062922;28;20189;-81
2022/03/29 02:58:25;;;;;;;16.37;8.63;;;6.30;93.80;;;;;;5061595;28;20214;-82
2022/03/29 03:00:52;;;;;;;17.87;10.53;;;;;;;;;;5063600;28;20179;-81
2022/03/29 03:03:18;;;;;;;18.73;10.63;;;6.20;94.00;;;;;;5063248;28;20206;-81
2022/03/29 03:05:43;;;;;;;18.00;9.83;;;6.30;81.30;;;;;;5064682;28;20203;-81
2022/03/29 03:08:09;;;;;;;17.63;10.03;;;6.50;94.00;;;;;;5063112;28;20215;-81
2022/03/29 03:10:35;;;;;;;18.00;9.37;;;;;;;;;;5065175;28;20173;-81
2022/03/29 03:13:01;;;;;;;14.47;9.60;;;6.30;93.90;;;;;;5062131;28;20650;-82
2022/03/29 03:15:27;;;;;;;15.83;9.87;;;;;;;;;;5063444;28;20265;-79
2022/03/29 03:17:54;;;;;;;16.67;9.53;;;6.30;93.40;;;;;;5062392;28;20268;-79
2022/03/29 03:20:21;;;;;;;16.77;8.97;;;6.30;93.10;;;;;;5062263;28;20177;-79
2022/03/29 03:22:47;;;;;;;15.03;9.33;;;6.40;80.50;;;;;;5064858;28;20168;-81
2022/03/29 03:25:13;;;;;;;15.27;8.97;;;6.30;93.40;;;;;;5064472;28;20252;-81
2022/03/29 03:27:40;;;;;;;16.47;9.23;;;6.40;95.00;;;;;;5064684;28;20201;-81
2022/03/29 03:30:11;;;;;;;15.83;9.47;;;6.40;80.00;;;;;;5063464;28;20174;-79
2022/03/29 03:32:38;;;;;;;11.10;7.30;;;;;;;;;;5063127;28;20169;-80
2022/03/29 03:35:04;;;;;;;16.87;9.27;;;;;;;;;;5064698;28;20693;-81
2022/03/29 03:37:30;;;;;;;16.87;10.97;;;;;;;;;;5062708;28;20197;-81
2022/03/29 03:39:56;;;;;;;16.67;10.07;;;;;;;;;;5064428;28;20206;-81
2022/03/29 03:42:22;;;;;;;13.53;8.57;;;;;;;;;;5063066;28;20193;-81
2022/03/29 03:44:48;;;;;;;17.30;8.47;;;;;;;;;;5064054;28;20600;-81
2022/03/29 03:47:14;;;;;;;16.93;8.33;;;;;;;;;;5063282;28;20250;-79
2022/03/29 03:49:40;;;;;;;13.47;8.67;;;6.30;94.70;;;;;;5067021;28;20211;-80
2022/03/29 03:52:10;;;;;;;12.47;7.90;;;6.10;93.70;;;;;;5063440;28;20170;-81
2022/03/29 03:54:36;;;;;;;14.43;8.43;;;6.20;80.60;;;;;;5061821;28;20213;-81
2022/03/29 03:57:04;;;;;;;17.20;9.00;;;6.30;80.40;;;;;;5062817;28;20197;-81
2022/03/29 03:59:30;;;;;;;13.67;8.07;;;;;;;;;;5062151;28;20210;-81
2022/03/29 04:01:56;;;;;;;13.83;8.97;;;6.20;95.00;;;;;;5061677;28;20178;-81
2022/03/29 04:04:22;;;;;;;13.93;8.07;;;6.20;95.50;;;;;;5063285;28;20216;-80
2022/03/29 04:06:47;;;;;;;13.63;8.23;;;6.20;80.50;;;;;;5062152;28;20189;-80
2022/03/29 04:09:13;;;;;;;11.07;7.67;;;6.10;97.60;;;;;;5063703;28;20737;-80
2022/03/29 04:11:39;;;;;;;13.17;8.10;;;;;;;;;;5065998;28;20220;-80
2022/03/29 04:14:05;;;;;;;12.87;7.10;;;6.20;80.50;;;;;;5060669;28;20260;-81
2022/03/29 04:16:31;;;;;;;14.33;8.30;;;;;;;;;;5060174;28;20174;-80
2022/03/29 04:18:57;;;;;;;13.67;8.13;;;;;;;;;;5058822;28;20631;-81
2022/03/29 04:21:23;;;;;;;14.23;7.83;;;;;;;;;;5059279;28;20637;-81
2022/03/29 04:23:49;;;;;;;14.53;8.23;;;6.20;80.60;;;;;;5061068;28;20210;-81
2022/03/29 04:26:15;;;;;;;12.87;7.97;;;;;;;;;;5059994;28;20183;-81
2022/03/29 04:28:41;;;;;;;15.33;8.70;;;;;;;;;;5059278;28;20182;-81
2022/03/29 04:31:10;;;;;;;12.57;7.80;;;6.30;97.60;;;;;;5060517;28;20209;-81
2022/03/29 04:33:37;;;;;;;14.67;7.47;;;;;;;;;;5061509;28;20521;-81
2022/03/29 04:36:04;;;;;;;15.30;7.90;;;6.40;96.10;;;;;;5060366;28;20179;-81
2022/03/29 04:38:30;;;;;;;12.93;8.40;;;6.20;80.20;;;;;;5062050;28;20210;-81
2022/03/29 04:40:56;;;;;;;12.37;7.30;;;;;;;;;;5062448;28;20210;-81
2022/03/29 04:43:22;;;;;;;15.57;7.87;;;;;;;;;;5061542;28;20227;-81
2022/03/29 04:45:48;;;;;;;13.60;8.30;;;;;;;;;;5060203;28;20174;-81
2022/03/29 04:48:14;;;;;;;14.37;7.97;;;6.10;80.20;;;;;;5060477;28;20199;-81
2022/03/29 04:50:43;;;;;;;12.60;7.93;;;6.00;96.20;;;;;;5061492;28;20201;-81
2022/03/29 04:53:09;;;;;;;12.70;7.67;;;;;;;;;;5061935;28;20186;-81
2022/03/29 04:55:35;;;;;;;13.27;7.67;;;6.10;80.30;;;;;;5062558;28;20170;-81
2022/03/29 04:58:01;;;;;;;14.57;8.10;;;6.00;80.40;;;;;;5060649;28;20194;-81
2022/03/29 05:00:27;;;;;;;11.23;7.40;;;6.00;80.30;;;;;;5061388;28;20271;-82
2022/03/29 05:02:53;;;;;;;11.03;7.60;;;6.10;94.30;;;;;;5061106;28;20643;-81
2022/03/29 05:05:19;;;;;;;12.87;7.37;;;;;;;;;;5062987;28;20226;-81
2022/03/29 05:07:46;;;;;;;10.80;6.47;;;6.00;80.40;;;;;;5061856;28;20221;-83
2022/03/29 05:10:13;;;;;;;14.30;7.03;;;6.00;80.50;;;;;;5058338;28;20205;-80
2022/03/29 05:12:43;;;;;;;11.07;7.50;;;6.00;80.40;;;;;;5058879;28;20179;-81
2022/03/29 05:15:09;;;;;;;12.77;7.57;;;6.00;80.40;;;;;;5061564;28;20185;-81
2022/03/29 05:17:36;;;;;;;10.93;7.13;;;5.90;95.40;;;;;;5061472;28;20283;-79
2022/03/29 05:20:06;;;;;;;10.80;7.17;;;6.10;79.90;;;;;;5064329;28;20641;-81
2022/03/29 05:22:40;;;;;;;17.50;8.30;;;6.10;79.80;;;;;;5061376;28;20197;-82
2022/03/29 05:25:05;;;;;;;14.53;7.67;;;6.20;79.80;;;;;;5062235;28;20213;-81
2022/03/29 05:27:31;;;;;;;16.67;8.57;;;;;;;;;;5062307;28;20198;-81
2022/03/29 05:29:57;;;;;;;14.87;7.83;;;6.40;93.70;;;;;;5061555;28;20623;-81
2022/03/29 05:32:23;;;;;;;15.47;7.50;;;;;;;;;;5062861;28;20174;-81
2022/03/29 05:34:49;;;;;;;16.00;8.07;;;;;;;;;;5065925;28;20174;-81
2022/03/29 05:37:15;;;;;;;12.57;7.03;;;;;;;;;;5068193;28;20197;-80
2022/03/29 05:39:43;;;;;;;15.30;7.97;;;6.40;79.10;;;;;;5063497;28;20196;-81
2022/03/29 05:42:10;;;;;;;13.47;8.77;;;6.40;93.10;;;;;;5058189;28;20238;-80
2022/03/29 05:44:39;;;;;;;15.60;8.50;;;;;;;;;;5059714;28;20591;-80
2022/03/29 05:49:51;;;;;;;10.83;7.70;;;6.60;92.30;;;;;;5060478;28;20267;-80
2022/03/29 05:52:18;;;;;;;16.00;7.00;;;;;;;;;;5060883;28;20261;-80
2022/03/29 05:54:45;;;;;;;15.60;7.47;;;6.50;92.80;;;;;;5059286;28;20246;-80
2022/03/29 05:57:17;;;;;;;19.90;8.23;;;6.60;78.80;;;;;;5060918;28;20199;-80
2022/03/29 05:59:44;;;;;;;19.37;8.00;;;6.60;79.60;;;;;;5062506;28;20185;-79
2022/03/29 06:02:10;;;;;;;22.90;10.83;;;6.80;92.30;;;;;;5064837;28;20186;-79
2022/03/29 06:04:36;;;;;;;22.33;12.30;;;;;;;;;;5065035;28;20271;-80
2022/03/29 06:07:07;;;;;;;22.90;11.97;;;6.80;78.20;;;;;;5064614;28;20221;-81
2022/03/29 06:09:34;;;;;;;16.20;9.40;;;7.00;92.20;;;;;;5066279;28;20206;-80
2022/03/29 06:12:02;;;;;;;14.10;8.23;;;6.90;78.00;;;;;;5065736;28;20184;-80
2022/03/29 06:14:28;;;;;;;17.27;9.07;;;;;;;;;;5062685;28;20187;-81
2022/03/29 06:16:55;;;;;;;21.67;10.23;;;;;;;;;;5067053;28;20306;-81
2022/03/29 06:19:21;;;;;;;17.63;9.80;;;7.40;88.30;;;;;;5065318;28;20186;-82
2022/03/29 06:21:47;;;;;;;16.83;9.43;;;;;;;;;;5065511;28;20181;-82
2022/03/29 06:24:13;;;;;;;14.77;9.57;;;7.20;84.50;;;;;;5064209;28;20215;-81
2022/03/29 06:26:39;;;;;;;14.20;8.03;;;;;;;;;;5065842;28;20198;-81
2022/03/29 06:29:06;;;;;;;28.10;14.40;;;7.70;78.40;;;;;;5065562;28;20175;-81
2022/03/29 06:31:32;;;;;;;20.10;12.17;;;;;;;;;;5064236;28;20189;-82
2022/03/29 06:33:58;;;;;;;13.83;9.40;;;7.90;76.30;;;;;;5065204;28;20174;-81
2022/03/29 06:36:25;;;;;;;13.50;9.23;;;;;;;;;;5064041;28;20259;-80
2022/03/29 06:38:51;;;;;;;17.60;9.53;;;8.00;75.30;;;;;;5065454;28;20710;-81
2022/03/29 06:41:16;;;;;;;19.37;8.47;;;8.10;75.60;;;;;;5065734;28;20731;-81
2022/03/29 06:43:43;;;;;;;13.53;8.37;;;;;;;;;;5064200;28;20220;-81
2022/03/29 06:46:09;;;;;;;17.00;7.80;;;8.30;74.90;;;;;;5063942;28;20179;-82
2022/03/29 06:48:43;;;;;;;15.60;8.33;;;8.40;74.30;;;;;;5063460;28;20209;-81
2022/03/29 06:51:09;;;;;;;16.47;7.90;;;8.60;74.30;;;;;;5064882;28;20213;-81
2022/03/29 06:53:38;;;;;;;16.90;8.03;;;8.60;73.80;;;;;;5064519;28;20194;-82
2022/03/29 06:56:05;;;;;;;17.60;8.30;;;8.60;73.80;;;;;;5065886;28;20651;-81
2022/03/29 06:58:30;;;;;;;14.83;8.13;;;8.80;73.70;;;;;;5065421;28;20264;-81
2022/03/29 07:00:57;;;;;;;15.50;8.60;;;8.60;73.50;;;;;;5065962;28;20236;-81
2022/03/29 07:03:23;;;;;;;15.63;9.03;;;;;;;;;;5064840;28;20208;-81
2022/03/29 07:05:50;;;;;;;12.37;8.27;;;8.70;72.90;;;;;;5066181;28;20175;-81
2022/03/29 07:08:18;;;;;;;19.37;8.57;;;8.90;74.00;;;;;;5065933;28;20208;-81
2022/03/29 07:13:28;;;;;;;17.67;8.00;;;8.90;73.70;;;;;;5066382;28;20229;-82
2022/03/29 07:15:54;;;;;;;18.87;9.20;;;9.20;73.10;;;;;;5065239;28;20200;-82
2022/03/29 07:18:20;;;;;;;11.17;7.93;;;;;;;;;;5067078;28;20197;-81
2022/03/29 07:20:45;;;;;;;10.97;7.20;;;9.20;72.70;;;;;;5067082;28;20181;-80
2022/03/29 07:23:12;;;;;;;15.37;8.27;;;;;;;;;;5071196;28;20171;-80
2022/03/29 07:25:37;;;;;;;11.83;7.70;;;9.40;72.30;;;;;;5078460;28;20177;-80
2022/03/29 07:28:04;;;;;;;13.70;7.40;;;9.60;71.60;;;;;;5077323;28;20225;-81
2022/03/29 07:30:33;;;;;;;15.63;9.00;;;9.70;72.40;;;;;;5073935;28;20542;-82
2022/03/29 07:32:59;;;;;;;15.47;9.23;;;;;;;;;;5066024;28;20588;-82
2022/03/29 07:35:28;;;;;;;16.83;8.87;;;9.90;71.00;;;;;;5065608;28;20173;-82
2022/03/29 07:37:55;;;;;;;11.73;7.97;;;10.20;69.00;;;;;;5065156;28;20247;-80
2022/03/29 07:40:24;;;;;;;14.83;8.30;;;10.40;70.10;;;;;;5064293;28;20185;-81
2022/03/29 07:42:50;;;;;;;19.47;9.50;;;10.60;69.60;;;;;;5063893;28;20211;-81
2022/03/29 07:45:17;;;;;;;14.10;8.00;;;10.80;68.90;;;;;;5066175;28;20227;-82
2022/03/29 07:47:44;;;;;;;18.33;8.73;;;11.30;67.70;;;;;;5066186;28;20544;-82
2022/03/29 07:50:12;;;;;;;19.97;9.33;;;11.60;68.00;;;;;;5065499;28;20177;-82
2022/03/29 07:52:40;;;;;;;17.77;9.23;;;12.10;67.00;;;;;;5064308;28;20184;-82
2022/03/29 07:55:07;;;;;;;20.27;8.87;;;12.40;65.10;;;;;;5063523;28;20177;-81
2022/03/29 07:57:34;;;;;;;17.60;9.40;;;12.30;65.60;;;;;;5063028;28;20706;-79
2022/03/29 08:00:31;;;;;;;23.20;9.10;;;12.30;65.20;;;;;;5063341;28;20213;-79
2022/03/29 08:02:47;;;;;;;15.30;9.33;;;12.50;65.80;;;;;;5062936;28;20181;-79
2022/03/29 08:05:13;;;;;;;20.73;10.00;;;13.00;63.90;;;;;;5061999;28;20268;-81
2022/03/29 08:07:40;;;;;;;14.23;8.80;;;13.20;63.50;;;;;;5062808;28;20241;-80
2022/03/29 08:10:07;;;;;;;13.83;9.27;;;13.40;62.20;;;;;;5063306;28;20154;-80
2022/03/29 08:12:35;;;;;;;15.93;10.00;;;13.40;61.50;;;;;;5066360;28;20323;-80
2022/03/29 08:15:01;;;;;;;16.03;9.37;;;13.50;62.00;;;;;;5067869;28;20178;-82
2022/03/29 08:17:26;;;;;;;14.47;9.67;;;13.80;58.80;;;;;;5066021;28;20546;-81
2022/03/29 08:19:52;;;;;;;17.67;10.37;;;14.20;56.30;;;;;;5066570;28;20184;-82
2022/03/29 08:22:18;;;;;;;16.97;9.53;;;14.30;54.20;;;;;;5064552;28;20187;-82
2022/03/29 08:24:44;;;;;;;15.73;9.57;;;14.50;54.20;;;;;;5065950;28;20238;-82
2022/03/29 08:27:10;;;;;;;16.27;9.60;;;14.60;53.80;;;;;;5066132;28;20189;-82
2022/03/29 08:29:37;;;;;;;15.17;9.40;;;14.60;52.70;;;;;;5066602;28;20165;-81
2022/03/29 08:32:04;;;;;;;13.87;9.17;;;14.70;53.20;;;;;;5066025;28;20185;-82
2022/03/29 08:34:30;;;;;;;16.43;9.33;;;14.70;52.50;;;;;;5066507;28;20181;-82
2022/03/29 08:36:56;;;;;;;18.70;9.80;;;14.70;52.50;;;;;;5066307;28;20282;-82
2022/03/29 08:39:22;;;;;;;16.67;9.50;;;14.40;52.40;;;;;;5063468;28;20187;-80
2022/03/29 08:42:06;;;;;;;20.40;9.40;;;14.20;52.30;;;;;;5064329;28;20179;-82
2022/03/29 08:44:32;;;;;;;15.90;9.23;;;14.30;53.30;;;;;;5061794;28;20218;-82
2022/03/29 08:46:58;;;;;;;15.03;9.67;;;14.60;53.20;;;;;;5064086;28;20191;-81
2022/03/29 08:49:24;;;;;;;12.07;8.80;;;14.70;52.40;;;;;;5064737;28;20184;-81
2022/03/29 08:51:51;;;;;;;17.13;9.80;;;14.80;52.10;;;;;;5062218;28;20199;-82
2022/03/29 08:54:17;;;;;;;17.23;9.97;;;14.70;52.10;;;;;;5063264;28;20175;-81
2022/03/29 08:56:42;;;;;;;13.97;9.10;;;14.70;52.60;;;;;;5063153;28;20244;-82
2022/03/29 08:59:08;;;;;;;12.43;9.37;;;14.70;52.40;;;;;;5070393;28;20162;-81
2022/03/29 09:01:34;;;;;;;19.40;9.50;;;14.80;53.10;;;;;;5068175;28;20216;-81
2022/03/29 09:04:16;;;;;;;13.70;9.53;;;14.90;52.10;;;;;;5062601;28;20208;-81
2022/03/29 09:06:50;;;;;;;16.63;9.70;;;14.90;52.50;;;;;;5063902;28;20293;-82
2022/03/29 09:09:25;;;;;;;17.57;9.57;;;14.60;51.80;;;;;;5059780;28;20256;-81
2022/03/29 09:11:53;;;;;;;14.73;10.27;;;14.60;52.30;;;;;;5062674;28;20176;-82
2022/03/29 09:14:20;;;;;;;15.17;8.80;;;14.50;52.30;;;;;;5060631;28;20185;-80
2022/03/29 09:16:46;;;;;;;18.10;10.33;;;14.40;51.80;;;;;;5061583;28;20197;-79
2022/03/29 09:19:12;;;;;;;16.30;10.00;;;14.20;52.40;;;;;;5063284;28;20174;-80
2022/03/29 09:21:45;;;;;;;15.20;9.20;;;14.20;52.60;;;;;;5061511;28;20199;-81
2022/03/29 09:24:15;;;;;;;14.23;9.23;;;14.20;52.80;;;;;;5063307;28;20204;-81
2022/03/29 09:26:50;;;;;;;15.23;9.17;;;14.20;52.60;;;;;;5060201;28;20216;-81
2022/03/29 09:29:21;;;;;;;14.63;10.40;;;14.10;52.40;;;;;;5060618;28;20237;-81
2022/03/29 09:32:00;;;;;;;16.90;9.70;;;14.10;52.90;;;;;;5059511;28;20174;-82
2022/03/29 09:34:28;;;;;;;17.93;9.50;;;14.30;53.30;;;;;;5063475;28;20181;-82
2022/03/29 09:36:53;;;;;;;16.87;10.30;;;14.40;53.10;;;;;;5063158;28;20204;-80
2022/03/29 09:39:34;;;;;;;15.50;10.07;;;14.40;52.80;;;;;;5064252;28;20640;-80
2022/03/29 09:42:01;;;;;;;19.57;11.07;;;14.50;53.00;;;;;;5064603;28;20156;-81
2022/03/29 09:44:51;;;;;;;17.27;11.37;;;14.50;52.90;;;;;;5062177;28;20202;-81
2022/03/29 09:47:22;;;;;;;16.83;9.90;;;14.50;52.90;;;;;;5062990;28;20687;-82
2022/03/29 09:49:55;;;;;;;14.83;9.00;;;14.60;53.30;;;;;;5062400;28;20619;-81
2022/03/29 09:52:24;;;;;;;14.97;9.83;;;14.70;52.90;;;;;;5063853;28;20170;-82
2022/03/29 09:55:07;;;;;;;16.40;9.37;;;14.80;52.40;;;;;;5062633;28;20204;-80
2022/03/29 09:57:53;;;;;;;16.00;10.87;;;15.00;52.10;;;;;;5064852;28;20255;-81
2022/03/29 10:00:25;;;;;;;19.80;10.73;;;15.00;52.10;;;;;;5065168;28;20165;-81
2022/03/29 10:02:51;;;;;;;14.27;9.57;;;15.00;52.10;;;;;;5065174;28;20173;-79
2022/03/29 10:05:19;;;;;;;19.30;10.60;;;15.10;52.20;;;;;;5065328;28;20315;-81
2022/03/29 10:10:44;;;;;;;16.07;9.73;;;15.20;52.00;;;;;;5063385;28;20527;-82
2022/03/29 10:13:10;;;;;;;15.50;10.10;;;15.50;51.40;;;;;;5064385;28;20166;-82
2022/03/29 10:15:38;;;;;;;14.70;9.80;;;15.60;51.00;;;;;;5064000;28;20170;-80
2022/03/29 10:18:04;;;;;;;14.87;10.07;;;15.50;50.60;;;;;;5062998;28;20195;-82
2022/03/29 10:20:30;;;;;;;14.93;9.50;;;15.50;50.40;;;;;;5064652;28;20519;-80
2022/03/29 10:22:58;;;;;;;15.33;9.30;;;15.60;50.80;;;;;;5068002;28;20208;-81
2022/03/29 10:25:24;;;;;;;20.53;9.97;;;15.80;50.90;;;;;;5064809;28;20679;-82
2022/03/29 10:27:51;;;;;;;13.27;9.73;;;15.80;50.50;;;;;;5063463;28;20193;-82
2022/03/29 10:30:32;;;;;;;14.07;9.60;;;15.80;50.90;;;;;;5061432;28;20510;-79
2022/03/29 10:33:19;;;;;;;13.87;9.50;;;15.90;51.10;;;;;;5060632;28;20202;-79
2022/03/29 10:36:06;;;;;;;14.20;9.67;;;16.10;50.10;;;;;;5063017;28;20166;-81
2022/03/29 10:38:47;;;;;;;15.27;10.37;;;16.20;50.00;;;;;;5060451;28;20201;-82
2022/03/29 10:41:28;;;;;;;13.77;8.73;;;16.30;49.90;;;;;;5063835;28;20241;-81
2022/03/29 10:44:02;;;;;;;15.87;10.03;;;16.50;50.20;;;;;;5062304;28;20194;-81
2022/03/29 10:46:37;;;;;;;15.40;9.40;;;16.60;50.50;;;;;;5062312;28;20171;-80
2022/03/29 10:49:24;;;;;;;18.17;10.53;;;16.40;50.60;;;;;;5063729;28;20182;-82
2022/03/29 10:51:55;;;;;;;14.77;10.20;;;16.40;50.70;;;;;;5063328;28;20261;-82
2022/03/29 10:54:41;;;;;;;14.07;9.37;;;16.40;50.40;;;;;;5062175;28;20255;-82
2022/03/29 10:57:16;;;;;;;14.70;9.83;;;16.30;49.90;;;;;;5061663;28;20199;-82
2022/03/29 10:59:42;;;;;;;30.97;11.93;;;16.20;49.10;;;;;;5063741;28;20249;-82
2022/03/29 11:02:20;;;;;;;17.83;9.23;;;16.20;48.80;;;;;;5062609;28;20177;-82
2022/03/29 11:05:04;;;;;;;15.87;9.40;;;16.40;47.20;;;;;;5062786;28;20194;-82
2022/03/29 11:07:35;;;;;;;14.07;9.03;;;16.60;47.00;;;;;;5062770;28;20195;-82
2022/03/29 11:10:11;;;;;;;11.97;9.27;;;16.80;46.90;;;;;;5062348;28;20623;-82
2022/03/29 11:12:47;;;;;;;13.40;8.83;;;16.90;47.20;;;;;;5064406;28;20152;-82
2022/03/29 11:15:24;;;;;;;14.63;9.73;;;17.10;48.30;;;;;;5062828;28;20191;-83
2022/03/29 11:17:51;;;;;;;15.23;9.80;;;17.20;47.30;;;;;;5062542;28;20717;-82
2022/03/29 11:20:36;;;;;;;14.03;8.30;;;17.20;46.70;;;;;;5064882;28;20178;-81
2022/03/29 11:23:11;;;;;;;18.80;8.80;;;17.00;43.90;;;;;;5061619;28;20192;-82
2022/03/29 11:25:42;;;;;;;9.80;7.37;;;17.00;43.40;;;;;;5062157;28;20177;-83
2022/03/29 11:28:09;;;;;;;11.93;8.27;;;16.80;42.90;;;;;;5062054;28;20196;-82
2022/03/29 11:30:35;;;;;;;18.17;8.60;;;16.80;43.10;;;;;;5063084;28;20199;-83
2022/03/29 11:33:06;;;;;;;14.30;9.17;;;17.00;43.80;;;;;;5063064;28;20172;-83
2022/03/29 11:35:34;;;;;;;12.20;8.27;;;17.50;44.50;;;;;;5060204;28;20186;-80
2022/03/29 11:38:15;;;;;;;13.57;8.53;;;18.20;43.00;;;;;;5061072;28;20257;-82
2022/03/29 11:40:41;;;;;;;11.37;7.97;;;18.50;44.20;;;;;;5061393;28;20210;-82
2022/03/29 11:43:10;;;;;;;12.20;8.63;;;18.60;42.10;;;;;;5062850;28;20203;-83
2022/03/29 11:45:41;;;;;;;12.30;8.83;;;18.90;41.50;;;;;;5062683;28;20176;-82
2022/03/29 11:48:13;;;;;;;13.97;8.70;;;18.90;41.20;;;;;;5061212;28;20323;-82
2022/03/29 11:50:38;;;;;;;16.00;8.40;;;19.10;40.20;;;;;;5060487;28;20172;-83
2022/03/29 11:53:32;;;;;;;11.97;7.50;;;19.10;40.50;;;;;;5061753;28;20238;-83
2022/03/29 11:56:13;;;;;;;16.23;8.53;;;19.20;40.60;;;;;;5063430;28;20158;-84
2022/03/29 11:58:54;;;;;;;21.37;7.90;;;19.60;41.50;;;;;;5063103;28;20219;-84
2022/03/29 12:01:25;;;;;;;11.17;7.50;;;19.50;40.20;;;;;;5064556;28;20248;-83
2022/03/29 12:03:56;;;;;;;10.97;8.10;;;19.90;40.40;;;;;;5063243;28;20562;-80
2022/03/29 12:06:28;;;;;;;13.20;7.67;;;19.90;40.20;;;;;;5062577;28;20170;-81
2022/03/29 12:09:02;;;;;;;16.47;7.90;;;19.80;39.70;;;;;;5062202;28;20276;-81
2022/03/29 12:11:36;;;;;;;11.30;7.20;;;19.40;39.20;;;;;;5063296;28;20632;-81
2022/03/29 12:14:11;;;;;;;11.10;7.20;;;19.60;38.90;;;;;;5062331;28;20208;-83
2022/03/29 12:16:38;;;;;;;12.13;7.87;;;19.30;39.10;;;;;;5061387;28;20181;-79
2022/03/29 12:19:12;;;;;;;13.70;7.87;;;19.00;40.40;;;;;;5062089;28;20700;-80
2022/03/29 12:21:39;;;;;;;13.77;8.43;;;18.90;39.50;;;;;;5063025;28;20188;-81
2022/03/29 12:24:10;;;;;;;15.50;9.07;;;18.90;40.30;;;;;;5062400;28;20201;-82
2022/03/29 12:26:44;;;;;;;14.97;8.17;;;18.90;40.40;;;;;;5061610;28;20241;-80
2022/03/29 12:29:13;;;;;;;12.57;7.93;;;18.90;40.10;;;;;;5061247;28;20177;-85
2022/03/29 12:31:39;;;;;;;14.90;8.10;;;18.80;40.20;;;;;;5061913;28;20174;-84
2022/03/29 12:34:06;;;;;;;14.07;8.27;;;19.00;41.80;;;;;;5061108;28;20165;-85
2022/03/29 12:36:32;;;;;;;11.33;6.33;;;19.60;40.10;;;;;;5060858;28;20781;-84
2022/03/29 12:39:04;;;;;;;11.77;7.27;;;19.90;40.30;;;;;;5061495;28;20268;-79
2022/03/29 12:41:32;;;;;;;13.30;8.97;;;20.30;41.30;;;;;;5062807;28;20220;-85
2022/03/29 12:43:59;;;;;;;18.60;8.20;;;20.50;39.00;;;;;;5059724;28;20232;-86
2022/03/29 12:46:24;;;;;;;23.87;8.27;;;20.50;41.00;;;;;;5062166;28;20646;-87
2022/03/29 12:48:50;;;;;;;14.83;7.73;;;20.20;38.80;;;;;;5062328;28;20170;-84
2022/03/29 12:51:30;;;;;;;15.07;8.10;;;20.00;38.30;;;;;;5062501;28;20169;-84
2022/03/29 12:54:09;;;;;;;12.13;8.23;;;19.70;38.40;;;;;;5061507;28;20190;-84
2022/03/29 12:56:40;;;;;;;10.30;7.80;;;19.80;39.10;;;;;;5062519;28;20177;-82
2022/03/29 12:59:38;;;;;;;15.53;7.77;;;20.10;39.40;;;;;;5061223;28;20213;-83
2022/03/29 13:02:17;;;;;;;12.13;7.77;;;20.10;39.70;;;;;;5058608;28;20278;-85
2022/03/29 13:04:48;;;;;;;16.40;8.27;;;19.70;39.30;;;;;;5058850;28;20214;-85
2022/03/29 13:07:41;;;;;;;13.37;6.97;;;19.70;41.00;;;;;;5060053;28;20190;-82
2022/03/29 13:10:10;;;;;;;23.43;7.87;;;20.50;42.50;;;;;;5060790;28;20176;-83
2022/03/29 13:12:54;;;;;;;14.17;8.13;;;21.00;39.30;;;;;;5061361;28;20202;-83
2022/03/29 13:15:46;;;;;;;10.80;7.37;;;21.70;40.50;;;;;;5065514;28;20171;-81
2022/03/29 13:18:25;;;;;;;51.27;9.30;;;21.50;40.60;;;;;;5069183;28;20208;-82